Johnson City, TN

12:43 PM EDT on August 30, 2014 (GMT -0400)
Tree Streets | Change Station
CLOSE
Current Station
Personal Weather Station
Location: Johnson City, TN
Elevation: 1668 ft
Nearby Weather Stations

Elev 1668 ft 36.31 °N, 82.36 °W | Updated 7 seconds ago

Clear
Clear
90.5 °F
Feels Like 93 °F
N
0.0
Wind Variable Wind from SW
Gusts 0.0 mph

Today
High -- | Low -- °F
--% Chance of Precip.
Yesterday
High -- | Low -- °F
Precip. -- in
6:59 AM 8:00 PM
Waxing Crescent, 23% visible
Pressure 30.12 in
Visibility 10.0 miles
Clouds Clear
Heat Index 93 °F
Dew Point 65 °F
Humidity 43%
Rainfall 0.00 in
Snow Depth Not available.
UV 9 out of 12
Pollen 9.30 out of 12
Air Quality Not available.
Flu Activity Not available.
METAR KTRI 301553Z VRB04KT 10SM CLR 29/17 A3020 RMK AO2 SLP198 T02940172 $

More Conditions Fewer Conditions

Pressure 30.12 in
Visibility 10.0 miles
Clouds Clear
Heat Index 93 °F
Dew Point 65 °F
Humidity 43%
Rainfall 0.00 in
Snow Depth Not available.
UV 9 out of 12
Pollen 9.30 out of 12
Air Quality Not available.
Flu Activity Not available.
METAR KTRI 301553Z VRB04KT 10SM CLR 29/17 A3020 RMK AO2 SLP198 T02940172 $

More Conditions Fewer Conditions

10-Day Weather Forecast

Almanac

Astronomy

Aug. 30, 2014 Rise Set
Actual Time 6:59 AM EDT 8:00 PM EDT
Civil Twilight 6:32 AM EDT 8:26 PM EDT
Nautical Twilight 6:01 AM EDT 8:57 PM EDT
Astronomical Twilight 5:28 AM EDT 9:30 PM EDT
Moon 11:36 AM EDT 10:43 PM EDT
Length of Visible Light 13h 53m
Length of Day
13h 00m
Tomorrow will be 2m 12s shorter.
Waxing Crescent, 23% of the Moon is Illuminated
Today
Waxing Crescent
Sep 2
First Quarter
Sep 8
Full
Sep 15
Last Quarter
Sep 24
New

Today's Extremes

State Highs State Lows

Community

WunderPhotos

Upload Photos

1,748,562 photos uploaded!

WunderBlogs® & News

Nearby

Snow Depth

Station Depth Elevation
No new snow has been reported.

Earthquake Activity

City Distance Mag. Time & Date
No recent earthquake activity has been reported nearby.
Minimum magnitude displayed is 2.5.

Coastal Water Temperatures

Place Temperature
No Stations Reporting

Nearby Weather Stations